Time;durP1;ratioP1;P1;durP2;ratioP2;P2;SDS_P1;SDS_P2;PMS_P1;PMS_P2;Temp;Humidity;BMP_temperature;BMP_pressure;BME280_temperature;BME280_humidity;BME280_pressure;Samples;Min_cycle;Max_cycle;Signal;HPM_P1;HPM_P2
2023/03/25 00:02:00;;;;;;;;;;;13.80;62.50;;;;;;5010604;28;19913;-91
2023/03/25 00:04:26;;;;;;;;;;;13.80;62.10;;;;;;4994943;28;19925;-90
2023/03/25 00:06:55;;;;;;;;;;;13.80;62.00;;;;;;4993084;28;19917;-88
2023/03/25 00:09:21;;;;;;;;;;;13.80;62.40;;;;;;4991766;28;19996;-89
2023/03/25 00:11:49;;;;;;;;;;;13.90;63.00;;;;;;4993007;28;19999;-90
2023/03/25 00:14:16;;;;;;;;;;;14.10;63.40;;;;;;4994016;28;19964;-90
2023/03/25 00:16:41;;;;;;;;;;;14.20;63.70;;;;;;5011706;28;19918;-88
2023/03/25 00:19:08;;;;;;;;;;;14.40;63.70;;;;;;5009573;28;19944;-92
2023/03/25 00:21:34;;;;;;;;;;;14.50;63.70;;;;;;4992670;28;19957;-89
2023/03/25 00:24:00;;;;;;;;;;;14.70;63.50;;;;;;4992140;28;20288;-92
2023/03/25 00:26:28;;;;;;;;;;;14.70;63.40;;;;;;4991707;28;19914;-89
2023/03/25 00:28:54;;;;;;;;;;;14.80;63.30;;;;;;5009957;28;20327;-91
2023/03/25 00:31:20;;;;;;;;;;;14.90;63.20;;;;;;5010018;28;21886;-89
2023/03/25 00:33:45;;;;;;;;;;;15.00;63.10;;;;;;5010689;28;20008;-88
2023/03/25 00:36:13;;;;;;;;;;;15.00;62.50;;;;;;4993834;28;20274;-93
2023/03/25 00:38:40;;;;;;;;;;;15.10;62.70;;;;;;4992327;28;19953;-92
2023/03/25 00:41:09;;;;;;;;;;;15.20;62.60;;;;;;5010312;28;20029;-91
2023/03/25 00:43:35;;;;;;;;;;;15.30;62.60;;;;;;5011629;28;20324;-92
2023/03/25 00:46:01;;;;;;;;;;;15.30;62.50;;;;;;4986710;28;19909;-89
2023/03/25 00:48:26;;;;;;;;;;;15.40;62.50;;;;;;4999617;28;19975;-88
2023/03/25 00:50:52;;;;;;;;;;;15.40;62.30;;;;;;5011084;28;19922;-91
2023/03/25 00:53:18;;;;;;;;;;;15.40;62.00;;;;;;5011085;28;20356;-90
2023/03/25 00:55:44;;;;;;;;;;;15.20;62.00;;;;;;5009351;28;20048;-89
2023/03/25 00:58:10;;;;;;;;;;;15.20;62.10;;;;;;4990912;28;19996;-92
2023/03/25 01:00:36;;;;;;;;;;;15.10;62.00;;;;;;5006929;28;20021;-90
2023/03/25 01:03:02;;;;;;;;;;;15.10;62.00;;;;;;5010247;28;19944;-89
2023/03/25 01:05:28;;;;;;;;;;;15.00;61.90;;;;;;5010317;28;19948;-91
2023/03/25 01:07:54;;;;;;;;;;;15.00;61.90;;;;;;4979213;28;19957;-90
2023/03/25 01:10:20;;;;;;;;;;;15.00;62.10;;;;;;4991618;28;19925;-92
2023/03/25 01:12:46;;;;;;;;;;;14.90;62.30;;;;;;4973091;28;20017;-89
2023/03/25 01:15:11;;;;;;;;;;;14.80;62.60;;;;;;4990918;28;19924;-91
2023/03/25 01:17:37;;;;;;;;;;;14.80;62.80;;;;;;4991028;28;19914;-91
2023/03/25 01:20:05;;;;;;;;;;;14.70;62.80;;;;;;4986645;28;19979;-89
2023/03/25 01:22:30;;;;;;;;;;;14.70;63.00;;;;;;4992669;28;19928;-88
2023/03/25 01:24:56;;;;;;;;;;;14.70;63.20;;;;;;5010753;28;19917;-90
2023/03/25 01:27:23;;;;;;;;;;;14.80;63.20;;;;;;5009734;28;19937;-90
2023/03/25 01:29:49;;;;;;;;;;;14.80;63.20;;;;;;5010286;28;19925;-90
2023/03/25 01:32:15;;;;;;;;;;;14.80;63.20;;;;;;4992525;28;20038;-92
2023/03/25 01:34:41;;;;;;;;;;;14.80;63.00;;;;;;5009989;28;19913;-90
2023/03/25 01:37:08;;;;;;;;;;;14.80;63.10;;;;;;5010307;28;19952;-88
2023/03/25 01:39:34;;;;;;;;;;;14.80;63.00;;;;;;4992082;28;19913;-88
2023/03/25 01:42:00;;;;;;;;;;;14.90;63.00;;;;;;5009982;28;19964;-88
2023/03/25 01:44:28;;;;;;;;;;;14.90;63.10;;;;;;5008518;28;19961;-91
2023/03/25 01:46:54;;;;;;;;;;;14.90;62.80;;;;;;5008091;28;19939;-90
2023/03/25 01:49:23;;;;;;;;;;;14.90;62.90;;;;;;5006843;28;19925;-90
2023/03/25 01:51:54;;;;;;;;;;;15.00;62.80;;;;;;5008855;28;19928;-91
2023/03/25 01:54:20;;;;;;;;;;;15.00;62.70;;;;;;5009767;28;19917;-90
2023/03/25 01:56:46;;;;;;;;;;;15.00;62.70;;;;;;5004277;28;19914;-91
2023/03/25 01:59:13;;;;;;;;;;;15.00;62.90;;;;;;5005600;28;20587;-89
2023/03/25 02:01:39;;;;;;;;;;;15.00;62.80;;;;;;5008135;28;20400;-92
2023/03/25 02:04:11;;;;;;;;;;;15.00;62.70;;;;;;5009904;28;19975;-89
2023/03/25 02:06:43;;;;;;;;;;;15.00;62.80;;;;;;5005690;28;19918;-90
2023/03/25 02:09:10;;;;;;;;;;;14.90;62.30;;;;;;4972885;28;19917;-92
2023/03/25 02:11:36;;;;;;;;;;;14.80;62.30;;;;;;4990152;28;19926;-90
2023/03/25 02:14:05;;;;;;;;;;;14.80;62.40;;;;;;4990473;28;19957;-91
2023/03/25 02:16:40;;;;;;;;;;;14.70;62.40;;;;;;4991234;28;20004;-90
2023/03/25 02:19:26;;;;;;;;;;;14.70;62.70;;;;;;5001407;28;20784;-92
2023/03/25 02:21:52;;;;;;;;;;;14.60;62.50;;;;;;5013500;28;19996;-92
2023/03/25 02:24:36;;;;;;;;;;;14.60;62.80;;;;;;5013541;28;19949;-91
2023/03/25 02:27:14;;;;;;;;;;;14.60;62.70;;;;;;5013309;28;19947;-89
2023/03/25 02:30:05;;;;;;;;;;;14.50;62.70;;;;;;5013231;28;20443;-87
2023/03/25 02:32:38;;;;;;;;;;;14.50;62.90;;;;;;4980077;28;19924;-90
2023/03/25 02:35:14;;;;;;;;;;;14.60;62.90;;;;;;4995639;28;20012;-92
2023/03/25 02:37:45;;;;;;;;;;;14.70;62.50;;;;;;5012010;28;19944;-92
2023/03/25 02:40:16;;;;;;;;;;;14.70;62.50;;;;;;5013373;28;19964;-91
2023/03/25 02:42:47;;;;;;;;;;;14.60;62.50;;;;;;5013028;28;19956;-90
2023/03/25 02:45:24;;;;;;;;;;;14.70;62.60;;;;;;4995522;28;19917;-88
2023/03/25 02:47:52;;;;;;;;;;;14.70;62.90;;;;;;5011331;28;19992;-90
2023/03/25 02:50:20;;;;;;;;;;;14.70;62.80;;;;;;5011156;28;19957;-90
2023/03/25 02:52:48;;;;;;;;;;;14.80;62.70;;;;;;4995246;28;20372;-89
2023/03/25 02:55:16;;;;;;;;;;;14.80;62.30;;;;;;5013283;28;19996;-89
2023/03/25 02:57:44;;;;;;;;;;;14.80;62.30;;;;;;5011215;28;19925;-91
2023/03/25 03:00:14;;;;;;;;;;;14.70;62.00;;;;;;5012210;28;19917;-90
2023/03/25 03:02:52;;;;;;;;;;;14.70;62.20;;;;;;4994959;28;19916;-91
2023/03/25 03:05:22;;;;;;;;;;;14.50;62.10;;;;;;5010470;28;20273;-89
2023/03/25 03:07:49;;;;;;;;;;;14.50;62.20;;;;;;5011125;28;19918;-89
2023/03/25 03:10:18;;;;;;;;;;;14.50;62.10;;;;;;4992464;28;19933;-90
2023/03/25 03:12:54;;;;;;;;;;;14.40;62.40;;;;;;5010048;28;20285;-89
2023/03/25 03:15:30;;;;;;;;;;;14.40;62.60;;;;;;5001281;28;20000;-89
2023/03/25 03:18:25;;;;;;;;;;;14.40;62.70;;;;;;4993751;28;19921;-89
2023/03/25 03:20:51;;;;;;;;;;;14.30;62.70;;;;;;4935058;28;20505;-89
2023/03/25 03:23:35;;;;;;;;;;;14.30;62.70;;;;;;5001513;28;19918;-89
2023/03/25 03:26:11;;;;;;;;;;;14.30;62.80;;;;;;5011103;28;19920;-88
2023/03/25 03:28:48;;;;;;;;;;;14.30;63.00;;;;;;4986173;28;19964;-89
2023/03/25 03:31:25;;;;;;;;;;;14.30;63.00;;;;;;5010337;28;19964;-87
2023/03/25 03:33:56;;;;;;;;;;;14.20;62.70;;;;;;5010812;28;19917;-87
2023/03/25 03:36:28;;;;;;;;;;;14.20;62.30;;;;;;5010220;28;19921;-90
2023/03/25 03:39:00;;;;;;;;;;;14.10;62.50;;;;;;5010834;28;19925;-87
2023/03/25 03:41:27;;;;;;;;;;;14.10;62.50;;;;;;5010722;28;19917;-89
2023/03/25 03:44:11;;;;;;;;;;;14.10;62.50;;;;;;5010667;28;20353;-89
2023/03/25 03:46:45;;;;;;;;;;;14.00;62.60;;;;;;5003487;28;19948;-91
2023/03/25 03:49:14;;;;;;;;;;;14.00;63.00;;;;;;5006820;28;19924;-90
2023/03/25 03:51:47;;;;;;;;;;;14.10;62.90;;;;;;4992578;28;19932;-89
2023/03/25 03:54:19;;;;;;;;;;;14.00;62.90;;;;;;4991933;28;20288;-89
2023/03/25 03:56:53;;;;;;;;;;;14.00;63.00;;;;;;5010781;28;19936;-89
2023/03/25 03:59:33;;;;;;;;;;;14.00;63.10;;;;;;5009425;28;19921;-90
2023/03/25 04:02:01;;;;;;;;;;;14.00;63.20;;;;;;5010578;28;19953;-89
2023/03/25 04:04:27;;;;;;;;;;;14.00;63.30;;;;;;5008127;28;19960;-89
2023/03/25 04:06:55;;;;;;;;;;;14.00;63.30;;;;;;5010315;28;19957;-90
2023/03/25 04:09:39;;;;;;;;;;;14.00;63.50;;;;;;4997736;28;19961;-90
2023/03/25 04:12:05;;;;;;;;;;;14.00;63.30;;;;;;5011525;28;19913;-90
2023/03/25 04:14:31;;;;;;;;;;;14.00;63.40;;;;;;4993701;28;20110;-90
2023/03/25 04:16:58;;;;;;;;;;;14.00;63.50;;;;;;5011166;28;19921;-91
2023/03/25 04:19:24;;;;;;;;;;;14.00;63.60;;;;;;4993409;28;20525;-90
2023/03/25 04:21:52;;;;;;;;;;;14.00;63.60;;;;;;5011302;28;20036;-89
2023/03/25 04:24:18;;;;;;;;;;;14.10;63.50;;;;;;4993747;28;19917;-90
2023/03/25 04:26:44;;;;;;;;;;;14.10;63.40;;;;;;4981588;28;20419;-88
2023/03/25 04:29:12;;;;;;;;;;;14.10;63.50;;;;;;4974150;28;19921;-91
2023/03/25 04:31:44;;;;;;;;;;;14.00;63.50;;;;;;4974343;28;20398;-91
2023/03/25 04:34:10;;;;;;;;;;;14.10;63.50;;;;;;4974225;28;20420;-90
2023/03/25 04:36:41;;;;;;;;;;;14.10;63.40;;;;;;4974248;28;20269;-90
2023/03/25 04:39:08;;;;;;;;;;;14.10;63.40;;;;;;4980390;28;19933;-88
2023/03/25 04:41:34;;;;;;;;;;;14.10;63.50;;;;;;5001815;28;20402;-90
2023/03/25 04:44:00;;;;;;;;;;;14.10;63.40;;;;;;4991744;28;19924;-88
2023/03/25 04:46:25;;;;;;;;;;;14.20;63.50;;;;;;5009386;28;19928;-90
2023/03/25 04:48:52;;;;;;;;;;;14.20;63.40;;;;;;5009217;28;19917;-91
2023/03/25 04:51:18;;;;;;;;;;;14.20;63.40;;;;;;5010502;28;20419;-90
2023/03/25 04:53:44;;;;;;;;;;;14.20;63.50;;;;;;5007161;28;20005;-89
2023/03/25 04:56:17;;;;;;;;;;;14.20;63.40;;;;;;4973399;28;19916;-88
2023/03/25 04:58:43;;;;;;;;;;;14.30;63.20;;;;;;4974038;28;20316;-88
2023/03/25 05:01:31;;;;;;;;;;;14.30;63.20;;;;;;4974532;28;20012;-90
2023/03/25 05:04:05;;;;;;;;;;;14.30;63.20;;;;;;4973298;28;20576;-92
2023/03/25 05:06:37;;;;;;;;;;;14.30;63.20;;;;;;5007502;28;19925;-90
2023/03/25 05:09:03;;;;;;;;;;;14.30;63.00;;;;;;5008802;28;19968;-89
2023/03/25 05:11:29;;;;;;;;;;;14.30;63.00;;;;;;4983751;28;20129;-90
2023/03/25 05:13:55;;;;;;;;;;;14.30;62.80;;;;;;5008275;28;20056;-90
2023/03/25 05:16:21;;;;;;;;;;;14.40;62.90;;;;;;4990095;28;19917;-90
2023/03/25 05:18:46;;;;;;;;;;;14.40;62.80;;;;;;5009307;28;19945;-89
2023/03/25 05:21:12;;;;;;;;;;;14.40;62.80;;;;;;5008481;28;20008;-88
2023/03/25 05:23:38;;;;;;;;;;;14.40;62.80;;;;;;5007429;28;19947;-89
2023/03/25 05:26:05;;;;;;;;;;;14.50;62.80;;;;;;5008339;28;19953;-87
2023/03/25 05:28:30;;;;;;;;;;;14.40;62.70;;;;;;5008573;28;20015;-90
2023/03/25 05:30:56;;;;;;;;;;;14.50;62.70;;;;;;4989739;28;20327;-91
2023/03/25 05:33:22;;;;;;;;;;;14.50;62.60;;;;;;5008282;28;19922;-88
2023/03/25 05:35:48;;;;;;;;;;;14.40;62.40;;;;;;5008992;28;19963;-92
2023/03/25 05:38:17;;;;;;;;;;;14.30;62.60;;;;;;5008736;28;20272;-89
2023/03/25 05:40:44;;;;;;;;;;;14.30;62.50;;;;;;5008267;28;20300;-88
2023/03/25 05:43:11;;;;;;;;;;;14.30;62.70;;;;;;5007972;28;20028;-89
2023/03/25 05:45:37;;;;;;;;;;;14.30;62.50;;;;;;4989513;28;19967;-92
2023/03/25 05:48:03;;;;;;;;;;;14.30;62.60;;;;;;5007599;28;19921;-90
2023/03/25 05:50:28;;;;;;;;;;;14.30;62.40;;;;;;4989857;28;20007;-90
2023/03/25 05:52:54;;;;;;;;;;;14.30;62.60;;;;;;4990469;28;19958;-88
2023/03/25 05:55:21;;;;;;;;;;;14.30;62.50;;;;;;5008039;28;20385;-90
2023/03/25 05:57:47;;;;;;;;;;;14.40;62.20;;;;;;5007892;28;19913;-90
2023/03/25 06:00:14;;;;;;;;;;;14.40;62.60;;;;;;4983105;28;19921;-88
2023/03/25 06:02:41;;;;;;;;;;;14.50;62.50;;;;;;4997583;28;19917;-90
2023/03/25 06:05:12;;;;;;;;;;;14.50;62.40;;;;;;5005612;28;19940;-90
2023/03/25 06:07:41;;;;;;;;;;;14.60;62.30;;;;;;4989433;28;20344;-92
2023/03/25 06:10:07;;;;;;;;;;;14.60;62.20;;;;;;5005726;28;19932;-90
2023/03/25 06:12:37;;;;;;;;;;;14.60;62.00;;;;;;5008313;28;20607;-88
2023/03/25 06:15:07;;;;;;;;;;;14.60;62.00;;;;;;4989551;28;19953;-89
2023/03/25 06:17:33;;;;;;;;;;;14.70;61.80;;;;;;4988226;28;19920;-90
2023/03/25 06:20:06;;;;;;;;;;;14.70;62.20;;;;;;5010351;28;20016;-92
2023/03/25 06:22:32;;;;;;;;;;;14.70;62.10;;;;;;5007556;28;19913;-90
2023/03/25 06:24:58;;;;;;;;;;;14.80;62.40;;;;;;4986465;28;19917;-90
2023/03/25 06:27:25;;;;;;;;;;;14.80;62.00;;;;;;5006540;28;19921;-88
2023/03/25 06:29:51;;;;;;;;;;;14.70;61.90;;;;;;5002367;28;19929;-90
2023/03/25 06:32:19;;;;;;;;;;;14.50;61.90;;;;;;4989800;28;19913;-89
2023/03/25 06:34:44;;;;;;;;;;;14.40;62.30;;;;;;5007017;28;19922;-90
2023/03/25 06:37:10;;;;;;;;;;;14.30;62.50;;;;;;5006927;28;19967;-89
2023/03/25 06:39:39;;;;;;;;;;;14.30;62.50;;;;;;5007303;28;19967;-89
2023/03/25 06:42:05;;;;;;;;;;;14.20;63.00;;;;;;5008137;28;19917;-89
2023/03/25 06:44:30;;;;;;;;;;;14.20;63.30;;;;;;5006032;28;20343;-91
2023/03/25 06:46:56;;;;;;;;;;;14.20;63.40;;;;;;4989596;28;19922;-88
2023/03/25 06:49:21;;;;;;;;;;;14.20;63.50;;;;;;5009032;28;19953;-90
2023/03/25 06:51:47;;;;;;;;;;;14.20;63.70;;;;;;5008995;28;20274;-88
2023/03/25 06:54:13;;;;;;;;;;;14.30;63.90;;;;;;5008661;28;19918;-89
2023/03/25 06:56:39;;;;;;;;;;;14.40;63.90;;;;;;4998701;28;19924;-89
2023/03/25 06:59:05;;;;;;;;;;;14.40;63.80;;;;;;5010122;28;19918;-89
2023/03/25 07:01:30;;;;;;;;;;;14.40;63.30;;;;;;4990877;28;19961;-89
2023/03/25 07:03:56;;;;;;;;;;;14.40;63.70;;;;;;5003255;28;20041;-91
2023/03/25 07:06:23;;;;;;;;;;;14.50;63.90;;;;;;4985477;28;20404;-88
2023/03/25 07:08:49;;;;;;;;;;;14.60;63.80;;;;;;5010448;28;19921;-90
2023/03/25 07:11:16;;;;;;;;;;;14.60;63.60;;;;;;5010340;28;19929;-90
2023/03/25 07:13:41;;;;;;;;;;;14.50;63.40;;;;;;4994668;28;20295;-90
2023/03/25 07:16:07;;;;;;;;;;;14.60;64.20;;;;;;5009674;28;20000;-91
2023/03/25 07:18:33;;;;;;;;;;;14.70;64.20;;;;;;4995408;28;20380;-90
2023/03/25 07:20:58;;;;;;;;;;;14.80;64.40;;;;;;5004405;28;19913;-90
2023/03/25 07:23:24;;;;;;;;;;;14.80;64.70;;;;;;4992720;28;19925;-91
2023/03/25 07:25:50;;;;;;;;;;;14.90;64.30;;;;;;4999134;28;19988;-90
2023/03/25 07:28:16;;;;;;;;;;;14.90;64.00;;;;;;4995389;28;19963;-92
2023/03/25 07:30:42;;;;;;;;;;;14.80;63.90;;;;;;4996869;28;20418;-90
2023/03/25 07:33:08;;;;;;;;;;;14.80;63.70;;;;;;4977383;28;19910;-90
2023/03/25 07:35:34;;;;;;;;;;;14.80;63.80;;;;;;4992932;28;19914;-91
2023/03/25 07:37:59;;;;;;;;;;;14.80;63.70;;;;;;4992712;28;19916;-91
2023/03/25 07:40:25;;;;;;;;;;;14.80;63.70;;;;;;5008888;28;20577;-92
2023/03/25 07:42:51;;;;;;;;;;;14.80;63.80;;;;;;4992607;28;19913;-91
2023/03/25 07:45:17;;;;;;;;;;;14.80;63.80;;;;;;5009599;28;20008;-90
2023/03/25 07:47:48;;;;;;;;;;;14.80;64.00;;;;;;4990748;28;20295;-90
2023/03/25 07:50:15;;;;;;;;;;;14.80;64.00;;;;;;5009140;28;20328;-91
2023/03/25 07:52:41;;;;;;;;;;;14.80;63.90;;;;;;4994518;28;19910;-90
2023/03/25 07:55:07;;;;;;;;;;;14.90;63.80;;;;;;4994903;28;20388;-89
2023/03/25 07:57:33;;;;;;;;;;;14.80;63.80;;;;;;5012231;28;19909;-89
2023/03/25 07:59:58;;;;;;;;;;;14.60;63.70;;;;;;4994509;28;20362;-91
2023/03/25 08:02:24;;;;;;;;;;;14.70;64.20;;;;;;4995094;28;20268;-90
2023/03/25 08:04:53;;;;;;;;;;;14.80;64.40;;;;;;5012131;28;19940;-90
2023/03/25 08:07:18;;;;;;;;;;;14.90;64.40;;;;;;4994256;28;19972;-88
2023/03/25 08:09:44;;;;;;;;;;;15.00;64.40;;;;;;5010383;28;19918;-89
2023/03/25 08:12:10;;;;;;;;;;;15.00;64.30;;;;;;4985204;28;19914;-90
2023/03/25 08:14:35;;;;;;;;;;;15.10;64.00;;;;;;5011246;28;19967;-91
2023/03/25 08:17:01;;;;;;;;;;;15.10;64.10;;;;;;5011504;28;19917;-92
2023/03/25 08:19:27;;;;;;;;;;;15.20;64.00;;;;;;4993921;28;20391;-91
2023/03/25 08:21:53;;;;;;;;;;;15.30;64.10;;;;;;4993412;28;20363;-92
2023/03/25 08:24:19;;;;;;;;;;;15.30;64.20;;;;;;4993803;28;20700;-91
2023/03/25 08:26:44;;;;;;;;;;;15.50;64.30;;;;;;4993400;28;19932;-89
2023/03/25 08:29:11;;;;;;;;;;;15.70;64.20;;;;;;4993736;28;19918;-91
2023/03/25 08:31:37;;;;;;;;;;;15.90;64.40;;;;;;5011645;28;19924;-90
2023/03/25 08:34:03;;;;;;;;;;;16.10;63.90;;;;;;4994388;28;20372;-90
2023/03/25 08:36:28;;;;;;;;;;;16.20;63.80;;;;;;4993569;28;19945;-89
2023/03/25 08:38:54;;;;;;;;;;;16.40;63.40;;;;;;5011289;28;19982;-91
2023/03/25 08:41:20;;;;;;;;;;;16.50;63.40;;;;;;5011715;28;19909;-91
2023/03/25 08:43:46;;;;;;;;;;;16.40;62.90;;;;;;5014634;28;20016;-90
2023/03/25 08:46:11;;;;;;;;;;;16.40;62.50;;;;;;5013265;28;20008;-89
2023/03/25 08:48:37;;;;;;;;;;;16.40;62.50;;;;;;5012400;28;19921;-90
2023/03/25 08:51:03;;;;;;;;;;;16.30;62.30;;;;;;5012380;28;19924;-91
2023/03/25 08:53:30;;;;;;;;;;;16.20;61.90;;;;;;4994901;28;19972;-89
2023/03/25 08:55:56;;;;;;;;;;;16.20;62.00;;;;;;4994003;28;19910;-91
2023/03/25 08:58:22;;;;;;;;;;;16.10;62.10;;;;;;5010688;28;20012;-91
2023/03/25 09:00:48;;;;;;;;;;;16.10;62.50;;;;;;5012174;28;19944;-90
2023/03/25 09:03:14;;;;;;;;;;;16.10;62.40;;;;;;5011096;28;19909;-92
2023/03/25 09:05:40;;;;;;;;;;;16.10;62.00;;;;;;4994184;28;20057;-91
2023/03/25 09:08:07;;;;;;;;;;;16.10;62.10;;;;;;4994966;28;19917;-89
2023/03/25 09:10:33;;;;;;;;;;;16.10;62.10;;;;;;5012229;28;19932;-91
2023/03/25 09:12:59;;;;;;;;;;;16.10;62.10;;;;;;4999363;28;19921;-89
2023/03/25 09:15:25;;;;;;;;;;;16.10;62.20;;;;;;5010158;28;19919;-89
2023/03/25 09:17:51;;;;;;;;;;;16.10;62.10;;;;;;5011017;28;19917;-89
2023/03/25 09:20:17;;;;;;;;;;;16.20;62.20;;;;;;5009833;28;19921;-89
2023/03/25 09:22:43;;;;;;;;;;;16.30;62.40;;;;;;5009873;28;20349;-90
2023/03/25 09:25:08;;;;;;;;;;;16.50;62.10;;;;;;5009510;28;19927;-88
2023/03/25 09:27:34;;;;;;;;;;;16.60;61.80;;;;;;5009876;28;20356;-90
2023/03/25 09:30:00;;;;;;;;;;;16.60;61.80;;;;;;5010912;28;20135;-93
2023/03/25 09:32:26;;;;;;;;;;;16.60;61.30;;;;;;5010379;28;19909;-92
2023/03/25 09:34:54;;;;;;;;;;;16.60;61.60;;;;;;4992999;28;19960;-90
2023/03/25 09:37:20;;;;;;;;;;;16.70;62.20;;;;;;5010750;28;19936;-88
2023/03/25 09:39:45;;;;;;;;;;;17.00;63.70;;;;;;4992997;28;19918;-91
2023/03/25 09:42:36;;;;;;;;;;;17.30;62.60;;;;;;4992778;28;19909;-89
2023/03/25 09:45:04;;;;;;;;;;;17.40;61.30;;;;;;4992737;28;20288;-88
2023/03/25 09:47:32;;;;;;;;;;;17.50;60.80;;;;;;5005935;28;20031;-91
2023/03/25 09:50:03;;;;;;;;;;;17.70;61.00;;;;;;5007995;28;19972;-89
2023/03/25 09:52:35;;;;;;;;;;;17.90;61.00;;;;;;5004215;28;19953;-91
2023/03/25 09:55:08;;;;;;;;;;;18.00;59.20;;;;;;5002819;28;19926;-91
2023/03/25 09:57:40;;;;;;;;;;;18.00;58.20;;;;;;4989551;28;19936;-88
2023/03/25 10:00:06;;;;;;;;;;;18.10;57.40;;;;;;4992786;28;20007;-90
2023/03/25 10:02:36;;;;;;;;;;;18.00;57.70;;;;;;5011407;28;19918;-91
2023/03/25 10:05:20;;;;;;;;;;;18.00;57.40;;;;;;4992315;28;19918;-90
2023/03/25 10:08:04;;;;;;;;;;;18.00;56.10;;;;;;5007340;28;20476;-90
2023/03/25 10:10:50;;;;;;;;;;;18.10;57.40;;;;;;5009347;28;19930;-89
2023/03/25 10:13:15;;;;;;;;;;;18.00;56.60;;;;;;4991223;28;19909;-89
2023/03/25 10:15:52;;;;;;;;;;;17.90;55.20;;;;;;4991287;28;19926;-90
2023/03/25 10:18:36;;;;;;;;;;;17.90;55.20;;;;;;4989498;28;19950;-90
2023/03/25 10:21:07;;;;;;;;;;;18.00;56.80;;;;;;4989836;28;19914;-92
2023/03/25 10:23:38;;;;;;;;;;;18.20;56.90;;;;;;4991370;28;20045;-90
2023/03/25 10:26:20;;;;;;;;;;;18.30;56.30;;;;;;4990317;28;19963;-88
2023/03/25 10:29:06;;;;;;;;;;;18.30;55.50;;;;;;4997881;28;19918;-92
2023/03/25 10:31:34;;;;;;;;;;;18.40;56.20;;;;;;4997887;28;19969;-87
2023/03/25 10:34:04;;;;;;;;;;;18.40;56.00;;;;;;5002375;28;19918;-90
2023/03/25 10:36:35;;;;;;;;;;;18.20;56.50;;;;;;5002053;28;19922;-88
2023/03/25 10:39:01;;;;;;;;;;;18.10;58.40;;;;;;5003402;28;19918;-92
2023/03/25 10:41:34;;;;;;;;;;;18.00;58.70;;;;;;5011817;28;20397;-88
2023/03/25 10:44:00;;;;;;;;;;;17.80;58.80;;;;;;5011260;28;20024;-89
2023/03/25 10:46:45;;;;;;;;;;;17.70;58.40;;;;;;5012316;28;20043;-92
2023/03/25 10:49:12;;;;;;;;;;;17.60;59.20;;;;;;4994317;28;20001;-89
2023/03/25 10:51:39;;;;;;;;;;;17.50;59.30;;;;;;5011542;28;20047;-87
2023/03/25 10:54:05;;;;;;;;;;;17.40;59.90;;;;;;5012235;28;20557;-89
2023/03/25 10:56:33;;;;;;;;;;;17.30;59.60;;;;;;5013230;28;19913;-91
2023/03/25 10:59:00;;;;;;;;;;;17.20;59.80;;;;;;5012326;28;19918;-90
2023/03/25 11:01:33;;;;;;;;;;;17.10;60.10;;;;;;4994333;28;19913;-90
2023/03/25 11:03:59;;;;;;;;;;;17.00;60.50;;;;;;5005278;28;19925;-89
2023/03/25 11:06:29;;;;;;;;;;;17.10;61.00;;;;;;5010258;28;19914;-90
2023/03/25 11:08:56;;;;;;;;;;;17.30;61.20;;;;;;5011636;28;19917;-93
2023/03/25 11:11:29;;;;;;;;;;;17.70;62.40;;;;;;5012763;28;19931;-90
2023/03/25 11:13:56;;;;;;;;;;;18.30;63.10;;;;;;5013400;28;20529;-92
2023/03/25 11:16:21;;;;;;;;;;;18.80;61.10;;;;;;5009602;28;20000;-92
2023/03/25 11:18:47;;;;;;;;;;;19.20;59.80;;;;;;5012352;28;20012;-88
2023/03/25 11:21:13;;;;;;;;;;;19.60;59.90;;;;;;5013205;28;19960;-89
2023/03/25 11:23:51;;;;;;;;;;;19.80;57.40;;;;;;5012137;28;19975;-88
2023/03/25 11:26:20;;;;;;;;;;;20.00;55.20;;;;;;5011911;28;19918;-91
2023/03/25 11:28:59;;;;;;;;;;;19.80;54.90;;;;;;5012030;28;19980;-87
2023/03/25 11:31:26;;;;;;;;;;;19.50;55.10;;;;;;5010134;28;19928;-89
2023/03/25 11:34:10;;;;;;;;;;;19.00;56.00;;;;;;5010591;28;19961;-89
2023/03/25 11:36:39;;;;;;;;;;;18.50;56.80;;;;;;5010894;28;19917;-89
2023/03/25 11:39:23;;;;;;;;;;;17.90;58.30;;;;;;4993083;28;19921;-88
2023/03/25 11:41:49;;;;;;;;;;;17.50;59.60;;;;;;5003708;28;19917;-89
2023/03/25 11:44:20;;;;;;;;;;;17.30;61.10;;;;;;5010420;28;20005;-90
2023/03/25 11:46:47;;;;;;;;;;;17.40;62.30;;;;;;5010503;28;19967;-88
2023/03/25 11:49:17;;;;;;;;;;;18.00;63.40;;;;;;5008618;28;20427;-88
2023/03/25 11:51:43;;;;;;;;;;;18.70;63.10;;;;;;4991991;28;19972;-90
2023/03/25 11:54:11;;;;;;;;;;;19.30;62.20;;;;;;5010961;28;19948;-89
2023/03/25 11:56:38;;;;;;;;;;;19.70;61.40;;;;;;4992517;28;20356;-90
2023/03/25 11:59:07;;;;;;;;;;;20.00;61.00;;;;;;5010093;28;20012;-89
2023/03/25 12:01:37;;;;;;;;;;;20.00;60.40;;;;;;5009875;28;20012;-91
2023/03/25 12:04:13;;;;;;;;;;;20.00;61.00;;;;;;4991816;28;19917;-90
2023/03/25 12:06:56;;;;;;;;;;;19.90;60.10;;;;;;4991903;28;20332;-91
2023/03/25 12:09:23;;;;;;;;;;;20.00;60.70;;;;;;4992285;28;19975;-90
2023/03/25 12:12:07;;;;;;;;;;;20.10;60.00;;;;;;4992419;28;19921;-90
2023/03/25 12:14:48;;;;;;;;;;;20.30;60.40;;;;;;4985071;28;19948;-92
2023/03/25 12:17:24;;;;;;;;;;;20.80;59.90;;;;;;4992649;28;19922;-90
2023/03/25 12:20:11;;;;;;;;;;;21.30;60.60;;;;;;4992654;28;19917;-92
2023/03/25 12:22:37;;;;;;;;;;;21.80;58.70;;;;;;5008939;28;19921;-93
2023/03/25 12:25:25;;;;;;;;;;;22.10;57.60;;;;;;4991401;28;20200;-93
2023/03/25 12:28:09;;;;;;;;;;;22.50;56.30;;;;;;5003965;28;19980;-93
2023/03/25 12:30:57;;;;;;;;;;;22.30;55.40;;;;;;5012183;28;20012;-91
2023/03/25 12:33:31;;;;;;;;;;;21.90;55.30;;;;;;5002753;28;19917;-91
2023/03/25 12:36:15;;;;;;;;;;;21.30;56.10;;;;;;4991403;28;20414;-91
2023/03/25 12:39:00;;;;;;;;;;;20.60;56.30;;;;;;5001125;28;19932;-89
2023/03/25 12:41:38;;;;;;;;;;;19.90;57.20;;;;;;4993448;28;19913;-90
2023/03/25 12:44:20;;;;;;;;;;;19.40;58.30;;;;;;5009729;28;20415;-91
2023/03/25 12:47:04;;;;;;;;;;;19.10;58.70;;;;;;4994009;28;19920;-91
2023/03/25 12:49:30;;;;;;;;;;;18.80;59.20;;;;;;4992730;28;19921;-90
2023/03/25 12:52:09;;;;;;;;;;;18.60;59.00;;;;;;5007755;28;19998;-93
2023/03/25 12:54:41;;;;;;;;;;;18.30;58.90;;;;;;5009727;28;19972;-91
2023/03/25 12:57:16;;;;;;;;;;;17.70;58.60;;;;;;5009250;28;19921;-90
2023/03/25 12:59:47;;;;;;;;;;;17.30;58.80;;;;;;5011609;28;19960;-91
2023/03/25 13:02:16;;;;;;;;;;;16.90;60.10;;;;;;5009840;28;19913;-90
2023/03/25 13:04:47;;;;;;;;;;;16.80;61.40;;;;;;4992200;28;20008;-89
2023/03/25 13:07:18;;;;;;;;;;;16.80;62.70;;;;;;5009744;28;19921;-89
2023/03/25 13:09:52;;;;;;;;;;;17.00;63.00;;;;;;4993692;28;19925;-91
2023/03/25 13:12:26;;;;;;;;;;;17.60;62.90;;;;;;5010526;28;19913;-90
2023/03/25 13:15:02;;;;;;;;;;;17.80;62.10;;;;;;4984532;28;19922;-89
2023/03/25 13:17:48;;;;;;;;;;;18.10;62.10;;;;;;5011003;28;19947;-90
2023/03/25 13:20:15;;;;;;;;;;;18.60;62.30;;;;;;4972327;28;19918;-91
2023/03/25 13:22:43;;;;;;;;;;;19.00;61.60;;;;;;5009283;28;19913;-92
2023/03/25 13:25:27;;;;;;;;;;;19.20;61.70;;;;;;5011633;28;19922;-90
2023/03/25 13:27:55;;;;;;;;;;;19.10;60.70;;;;;;5009820;28;19914;-89
2023/03/25 13:30:25;;;;;;;;;;;19.00;60.80;;;;;;5009755;28;20498;-90
2023/03/25 13:32:53;;;;;;;;;;;19.00;61.00;;;;;;5005022;28;19939;-91
2023/03/25 13:35:24;;;;;;;;;;;18.90;60.80;;;;;;5010392;28;19921;-93
2023/03/25 13:37:55;;;;;;;;;;;18.70;60.70;;;;;;4992251;28;19921;-90
2023/03/25 13:40:29;;;;;;;;;;;18.60;61.00;;;;;;4991049;28;20363;-91
2023/03/25 13:42:58;;;;;;;;;;;18.40;60.90;;;;;;4993359;28;20288;-92
2023/03/25 13:45:24;;;;;;;;;;;18.30;61.10;;;;;;4999952;28;19917;-93
2023/03/25 13:47:57;;;;;;;;;;;18.20;61.60;;;;;;5015855;28;19933;-89
2023/03/25 13:50:26;;;;;;;;;;;18.30;61.70;;;;;;4992686;28;19936;-89
2023/03/25 13:52:55;;;;;;;;;;;18.30;61.90;;;;;;4991985;28;19913;-90
2023/03/25 13:55:24;;;;;;;;;;;18.40;62.20;;;;;;4994854;28;20292;-90
2023/03/25 13:57:53;;;;;;;;;;;18.40;62.40;;;;;;4992456;28;19914;-93
2023/03/25 14:00:47;;;;;;;;;;;18.60;62.40;;;;;;4993976;28;19925;-90
2023/03/25 14:03:18;;;;;;;;;;;18.70;62.20;;;;;;5010898;28;20360;-92
2023/03/25 14:05:58;;;;;;;;;;;18.70;61.60;;;;;;5012269;28;20012;-89
2023/03/25 14:08:23;;;;;;;;;;;18.70;62.00;;;;;;4993630;28;19948;-90
2023/03/25 14:11:03;;;;;;;;;;;18.60;60.90;;;;;;5010851;28;19937;-93
2023/03/25 14:13:31;;;;;;;;;;;18.30;60.00;;;;;;5011560;28;20455;-92
2023/03/25 14:16:06;;;;;;;;;;;18.20;59.60;;;;;;5015035;28;19925;-89
2023/03/25 14:18:38;;;;;;;;;;;18.00;59.60;;;;;;5014513;28;19922;-91
2023/03/25 14:21:21;;;;;;;;;;;17.70;59.60;;;;;;5015651;28;19920;-91
2023/03/25 14:23:47;;;;;;;;;;;17.30;60.20;;;;;;4997766;28;19925;-89
2023/03/25 14:26:16;;;;;;;;;;;17.10;61.30;;;;;;4995162;28;19960;-89
2023/03/25 14:28:43;;;;;;;;;;;16.90;62.10;;;;;;5015335;28;19933;-89
2023/03/25 14:31:21;;;;;;;;;;;16.80;62.10;;;;;;4997961;28;19918;-89